createdAt,value
2023-02-22T00:01:51.913Z,31.30
2023-02-22T00:04:28.999Z,30.97
2023-02-22T00:07:15.123Z,31.23
2023-02-22T00:09:50.764Z,31.33
2023-02-22T00:12:36.752Z,32.13
2023-02-22T00:15:26.573Z,31.13
2023-02-22T00:18:04.591Z,35.37
2023-02-22T00:20:49.221Z,34.13
2023-02-22T00:23:40.312Z,33.77
2023-02-22T00:26:13.234Z,32.53
2023-02-22T00:28:56.729Z,31.53
2023-02-22T00:31:29.588Z,30.20
2023-02-22T00:34:04.679Z,29.20
2023-02-22T00:36:52.709Z,28.17
2023-02-22T00:39:27.190Z,29.87
2023-02-22T00:42:04.116Z,29.20
2023-02-22T00:44:54.459Z,27.63
2023-02-22T00:47:30.250Z,28.63
2023-02-22T00:50:07.094Z,28.27
2023-02-22T00:52:41.050Z,28.63
2023-02-22T00:55:25.093Z,29.77
2023-02-22T01:00:50.785Z,29.17
2023-02-22T01:03:28.226Z,30.23
2023-02-22T01:06:07.053Z,29.47
2023-02-22T01:09:02.301Z,30.33
2023-02-22T01:11:37.780Z,28.87
2023-02-22T01:14:12.679Z,30.30
2023-02-22T01:16:48.222Z,30.10
2023-02-22T01:19:25.551Z,30.67
2023-02-22T01:22:01.938Z,29.20
2023-02-22T01:24:39.261Z,28.60
2023-02-22T01:27:13.194Z,30.50
2023-02-22T01:30:13.687Z,30.73
2023-02-22T01:32:54.937Z,31.20
2023-02-22T01:36:01.036Z,29.70
2023-02-22T01:38:29.432Z,27.50
2023-02-22T01:41:14.916Z,28.27
2023-02-22T01:43:51.228Z,32.10
2023-02-22T01:46:52.626Z,32.03
2023-02-22T01:49:30.121Z,31.07
2023-02-22T01:52:11.542Z,30.20
2023-02-22T01:54:50.303Z,29.50
2023-02-22T01:58:04.808Z,31.13
2023-02-22T02:00:49.666Z,33.90
2023-02-22T02:03:40.334Z,33.43
2023-02-22T02:06:25.393Z,36.13
2023-02-22T02:09:14.092Z,36.63
2023-02-22T02:11:51.487Z,37.27
2023-02-22T02:14:27.265Z,35.43
2023-02-22T02:20:14.781Z,36.37
2023-02-22T02:23:15.095Z,36.57
2023-02-22T02:26:28.892Z,40.20
2023-02-22T02:29:35.842Z,37.67
2023-02-22T02:32:49.788Z,37.97
2023-02-22T02:35:33.241Z,36.33
2023-02-22T02:38:18.135Z,36.53
2023-02-22T02:41:02.706Z,41.80
2023-02-22T02:43:47.860Z,39.77
2023-02-22T02:46:22.011Z,38.73
2023-02-22T02:49:04.240Z,35.80
2023-02-22T02:51:51.576Z,36.30
2023-02-22T03:00:39.642Z,39.67
2023-02-22T03:03:28.682Z,39.57
2023-02-22T03:06:53.568Z,39.77
2023-02-22T03:09:50.728Z,38.43
2023-02-22T03:12:51.618Z,38.53
2023-02-22T03:15:58.089Z,36.53
2023-02-22T03:19:12.097Z,33.67
2023-02-22T03:21:52.996Z,36.33
2023-02-22T03:24:53.161Z,35.97
2023-02-22T03:27:50.929Z,37.03
2023-02-22T03:30:39.483Z,37.63
2023-02-22T03:33:26.452Z,36.83
2023-02-22T03:36:11.503Z,38.43
2023-02-22T03:39:04.877Z,38.90
2023-02-22T03:42:01.642Z,36.83
2023-02-22T03:44:46.607Z,35.07
2023-02-22T03:47:40.953Z,35.97
2023-02-22T03:50:15.463Z,34.83
2023-02-22T03:53:03.609Z,35.37
2023-02-22T03:55:48.636Z,36.10
2023-02-22T03:58:27.187Z,33.10
2023-02-22T04:00:59.362Z,35.43
2023-02-22T04:03:31.390Z,33.90
2023-02-22T04:06:08.312Z,32.13
2023-02-22T04:08:40.985Z,33.03
2023-02-22T04:11:25.678Z,33.30
2023-02-22T04:14:11.766Z,32.90
2023-02-22T04:16:40.015Z,33.57
2023-02-22T04:19:14.769Z,32.20
2023-02-22T04:21:53.085Z,32.83
2023-02-22T04:24:41.225Z,31.67
2023-02-22T04:27:12.956Z,32.90
2023-02-22T04:30:23.245Z,32.97
2023-02-22T04:32:53.490Z,32.20
2023-02-22T04:35:36.712Z,32.20
2023-02-22T04:38:05.500Z,30.43
2023-02-22T04:40:40.220Z,30.43
2023-02-22T04:43:11.195Z,31.33
2023-02-22T04:45:50.687Z,29.97
2023-02-22T04:48:26.520Z,30.33
2023-02-22T04:51:04.135Z,29.13
2023-02-22T04:53:41.501Z,30.53
2023-02-22T04:56:37.702Z,30.03
2023-02-22T05:02:09.192Z,28.73
2023-02-22T05:04:51.367Z,29.57
2023-02-22T05:08:03.445Z,28.70
2023-02-22T05:10:39.052Z,27.57
2023-02-22T05:13:11.627Z,27.30
2023-02-22T05:15:39.608Z,28.67
2023-02-22T05:18:17.462Z,27.93
2023-02-22T05:21:04.964Z,28.90
2023-02-22T05:23:38.825Z,27.70
2023-02-22T05:26:14.788Z,27.43
2023-02-22T05:31:41.916Z,28.17
2023-02-22T05:34:14.357Z,27.43
2023-02-22T05:37:09.951Z,26.90
2023-02-22T05:39:41.043Z,26.50
2023-02-22T05:42:12.142Z,26.20
2023-02-22T05:44:40.193Z,26.37
2023-02-22T05:47:15.427Z,25.87
2023-02-22T05:52:51.052Z,23.53
2023-02-22T05:55:28.292Z,25.97
2023-02-22T05:58:13.717Z,24.57
2023-02-22T06:00:41.780Z,23.17
2023-02-22T06:03:13.916Z,23.37
2023-02-22T06:08:53.238Z,24.67
2023-02-22T06:11:30.336Z,25.10
2023-02-22T06:14:08.258Z,26.03
2023-02-22T06:16:50.763Z,23.63
2023-02-22T06:19:26.060Z,24.73
2023-02-22T06:22:27.224Z,26.87
2023-02-22T06:25:02.512Z,24.90
2023-02-22T06:27:39.433Z,24.80
2023-02-22T06:30:14.704Z,23.90
2023-02-22T06:32:42.980Z,24.27
2023-02-22T06:35:41.128Z,23.87
2023-02-22T06:38:28.503Z,22.67
2023-02-22T06:40:56.657Z,23.57
2023-02-22T06:43:27.791Z,22.57
2023-02-22T06:46:04.952Z,23.70
2023-02-22T06:48:53.797Z,22.50
2023-02-22T06:51:27.983Z,22.47
2023-02-22T06:54:14.220Z,22.50
2023-02-22T06:56:42.391Z,24.10
2023-02-22T06:59:17.917Z,22.63
2023-02-22T07:01:46.396Z,23.20
2023-02-22T07:04:14.372Z,22.63
2023-02-22T07:06:53.905Z,23.47
2023-02-22T07:09:32.181Z,22.53
2023-02-22T07:12:07.780Z,20.23
2023-02-22T07:14:38.932Z,21.80
2023-02-22T07:17:07.595Z,20.27
2023-02-22T07:19:44.391Z,20.97
2023-02-22T07:22:17.989Z,21.10
2023-02-22T07:25:03.588Z,20.53
2023-02-22T07:27:48.648Z,20.47
2023-02-22T07:33:28.256Z,21.70
2023-02-22T07:36:13.553Z,20.27
2023-02-22T07:38:42.065Z,20.60
2023-02-22T07:41:14.984Z,21.57
2023-02-22T07:43:43.347Z,21.83
2023-02-22T07:46:11.523Z,19.70
2023-02-22T07:48:39.582Z,20.97
2023-02-22T07:51:15.573Z,20.97
2023-02-22T07:53:51.173Z,20.13
2023-02-22T07:56:28.571Z,20.47
2023-02-22T07:59:04.036Z,20.07
2023-02-22T08:01:40.268Z,19.43
2023-02-22T08:04:13.151Z,18.70
2023-02-22T08:09:40.633Z,18.47
2023-02-22T08:12:17.611Z,17.87
2023-02-22T08:14:54.939Z,19.13
2023-02-22T08:17:34.710Z,19.80
2023-02-22T08:20:03.928Z,17.87
2023-02-22T08:22:40.495Z,19.20
2023-02-22T08:25:12.028Z,18.60
2023-02-22T08:27:49.216Z,19.07
2023-02-22T08:30:29.022Z,18.40
2023-02-22T08:33:11.404Z,19.13
2023-02-22T08:35:43.256Z,17.37
2023-02-22T08:38:27.501Z,18.33
2023-02-22T08:40:59.002Z,19.10
2023-02-22T08:43:38.947Z,16.73
2023-02-22T08:46:16.336Z,18.63
2023-02-22T08:49:03.237Z,19.20
2023-02-22T08:51:51.761Z,18.97
2023-02-22T08:54:27.245Z,20.53
2023-02-22T08:57:08.350Z,19.93
2023-02-22T08:59:51.098Z,18.87
2023-02-22T09:02:30.371Z,19.63
2023-02-22T09:04:58.510Z,20.50
2023-02-22T09:07:29.553Z,17.03
2023-02-22T09:09:57.602Z,18.50
2023-02-22T09:12:38.763Z,17.67
2023-02-22T09:24:27.505Z,18.07
2023-02-22T09:27:12.088Z,17.63
2023-02-22T09:29:43.134Z,17.97
2023-02-22T09:32:24.703Z,17.17
2023-02-22T09:34:52.916Z,17.27
2023-02-22T09:37:30.047Z,17.93
2023-02-22T09:40:13.833Z,17.00
2023-02-22T09:43:03.926Z,17.80
2023-02-22T09:45:48.275Z,17.20
2023-02-22T09:48:26.830Z,17.23
2023-02-22T09:51:15.670Z,17.00
2023-02-22T09:54:05.916Z,18.93
2023-02-22T09:56:54.661Z,15.87
2023-02-22T09:59:49.402Z,16.10
2023-02-22T10:02:42.935Z,16.47
2023-02-22T10:05:36.857Z,15.70
2023-02-22T10:08:17.124Z,16.07
2023-02-22T10:10:58.033Z,16.40
2023-02-22T10:13:51.923Z,15.63
2023-02-22T10:20:28.114Z,15.87
2023-02-22T10:23:38.670Z,15.20
2023-02-22T10:26:36.980Z,15.23
2023-02-22T10:29:26.107Z,14.73
2023-02-22T10:32:12.752Z,15.10
2023-02-22T10:35:05.594Z,14.27
2023-02-22T10:37:42.483Z,14.83
2023-02-22T10:40:26.827Z,15.30
2023-02-22T10:43:05.116Z,14.87
2023-02-22T10:45:45.345Z,15.97
2023-02-22T10:48:18.421Z,14.63
2023-02-22T10:51:08.647Z,14.97
2023-02-22T10:53:40.348Z,15.40
2023-02-22T10:56:29.557Z,15.17
2023-02-22T10:59:16.307Z,13.50
2023-02-22T11:01:44.676Z,14.47
2023-02-22T11:04:15.928Z,14.67
2023-02-22T11:07:18.103Z,14.37
2023-02-22T11:10:05.387Z,15.30
2023-02-22T11:12:44.786Z,15.10
2023-02-22T11:15:38.600Z,13.77
2023-02-22T11:18:27.779Z,14.50
2023-02-22T11:21:18.455Z,14.73
2023-02-22T11:24:10.814Z,14.80
2023-02-22T11:26:44.275Z,14.23
2023-02-22T11:29:39.837Z,14.03
2023-02-22T11:32:25.159Z,14.60
2023-02-22T11:35:09.341Z,14.57
2023-02-22T11:37:41.157Z,15.40
2023-02-22T11:40:28.720Z,15.03
2023-02-22T11:43:17.062Z,14.43
2023-02-22T11:46:06.095Z,14.33
2023-02-22T11:49:07.006Z,14.30
2023-02-22T11:52:05.596Z,15.60
2023-02-22T11:55:41.455Z,16.13
2023-02-22T11:58:42.193Z,15.07
2023-02-22T12:01:43.374Z,15.23
2023-02-22T12:05:16.980Z,15.43
2023-02-22T12:11:46.447Z,16.13
2023-02-22T12:14:34.276Z,15.10
2023-02-22T12:24:28.334Z,16.23
2023-02-22T12:27:13.323Z,15.10
2023-02-22T12:29:56.156Z,15.63
2023-02-22T12:32:53.213Z,17.07
2023-02-22T12:38:55.641Z,16.30
2023-02-22T12:41:53.010Z,16.73
2023-02-22T12:44:50.254Z,17.53
2023-02-22T12:47:41.839Z,17.73
2023-02-22T12:50:25.980Z,17.33
2023-02-22T12:53:15.597Z,17.77
2023-02-22T12:56:06.979Z,17.93
2023-02-22T12:59:03.991Z,17.90
2023-02-22T13:01:43.321Z,16.80
2023-02-22T13:04:21.024Z,17.73
2023-02-22T13:07:17.192Z,17.00
2023-02-22T13:17:26.864Z,18.87
2023-02-22T13:23:28.729Z,17.60
2023-02-22T13:26:28.153Z,18.40
2023-02-22T13:29:18.002Z,18.37
2023-02-22T13:32:28.528Z,18.03
2023-02-22T13:35:54.152Z,18.97
2023-02-22T13:39:16.807Z,19.00
2023-02-22T13:42:15.694Z,17.73
2023-02-22T14:04:41.486Z,17.43
2023-02-22T14:15:31.033Z,18.50
2023-02-22T14:18:26.397Z,19.07
2023-02-22T14:21:15.639Z,18.53
2023-02-22T14:24:03.409Z,18.23
2023-02-22T14:26:40.234Z,19.30
2023-02-22T14:29:26.022Z,18.57
2023-02-22T14:32:19.357Z,18.67
2023-02-22T14:35:09.640Z,18.87
2023-02-22T14:38:13.841Z,18.80
2023-02-22T14:40:51.089Z,21.33
2023-02-22T14:43:27.083Z,19.67
2023-02-22T14:46:17.311Z,18.67
2023-02-22T14:49:13.124Z,20.70
2023-02-22T14:51:53.298Z,20.30
2023-02-22T14:54:42.578Z,20.83
2023-02-22T14:57:29.783Z,20.33
2023-02-22T15:06:39.810Z,23.37
2023-02-22T15:09:30.570Z,23.40
2023-02-22T15:12:13.986Z,24.20
2023-02-22T15:14:53.130Z,25.47
2023-02-22T15:17:29.298Z,25.70
2023-02-22T15:20:15.965Z,24.80
2023-02-22T15:23:05.613Z,27.70
2023-02-22T15:26:26.623Z,29.47
2023-02-22T15:29:26.525Z,30.73
2023-02-22T15:32:04.049Z,29.57
2023-02-22T15:34:42.624Z,31.13
2023-02-22T15:37:29.295Z,29.93
2023-02-22T15:40:39.262Z,32.97
2023-02-22T15:43:25.310Z,32.33
2023-02-22T15:45:53.766Z,34.50
2023-02-22T15:48:41.254Z,33.03
2023-02-22T15:51:14.593Z,34.13
2023-02-22T15:53:52.358Z,34.30
2023-02-22T15:56:39.008Z,39.00
2023-02-22T16:02:41.667Z,35.13
2023-02-22T16:05:32.340Z,35.93
2023-02-22T16:08:03.115Z,35.10
2023-02-22T16:10:50.882Z,35.43
2023-02-22T16:13:40.780Z,34.70
2023-02-22T16:16:41.982Z,33.60
2023-02-22T16:19:42.123Z,35.63
2023-02-22T16:25:40.302Z,35.00
2023-02-22T16:28:42.228Z,32.53
2023-02-22T16:31:14.040Z,33.03
2023-02-22T16:33:43.912Z,34.70
2023-02-22T16:36:16.671Z,34.60
2023-02-22T16:38:53.892Z,34.30
2023-02-22T16:41:45.573Z,33.53
2023-02-22T16:44:38.478Z,32.80
2023-02-22T16:47:14.218Z,31.43
2023-02-22T16:49:52.635Z,32.73
2023-02-22T16:55:27.287Z,32.07
2023-02-22T16:58:07.267Z,32.77
2023-02-22T17:01:04.802Z,31.57
2023-02-22T17:03:54.225Z,29.27
2023-02-22T17:06:53.836Z,31.47
2023-02-22T17:09:37.397Z,30.10
2023-02-22T17:12:15.896Z,28.57
2023-02-22T17:15:03.009Z,26.07
2023-02-22T17:18:41.627Z,27.73
2023-02-22T17:21:40.541Z,27.73
2023-02-22T17:24:12.802Z,26.67
2023-02-22T17:26:46.796Z,25.97
2023-02-22T17:29:15.508Z,26.03
2023-02-22T17:31:43.677Z,25.03
2023-02-22T17:34:13.138Z,24.87
2023-02-22T17:36:42.048Z,25.80
2023-02-22T17:39:10.937Z,26.27
2023-02-22T17:41:53.933Z,25.03
2023-02-22T17:44:22.902Z,26.23
2023-02-22T17:46:51.071Z,26.20
2023-02-22T17:49:20.628Z,26.17
2023-02-22T17:51:49.635Z,25.13
2023-02-22T17:54:18.650Z,26.87
2023-02-22T17:56:55.973Z,25.50
2023-02-22T17:59:24.146Z,27.17
2023-02-22T18:01:52.654Z,26.20
2023-02-22T18:04:22.805Z,26.07
2023-02-22T18:06:52.711Z,26.00
2023-02-22T18:09:20.714Z,25.40
2023-02-22T18:11:48.750Z,26.67
2023-02-22T18:14:16.883Z,24.40
2023-02-22T18:16:46.790Z,26.67
2023-02-22T18:19:20.999Z,26.20
2023-02-22T18:21:52.419Z,26.27
2023-02-22T18:24:20.478Z,25.10
2023-02-22T18:26:48.755Z,26.23
2023-02-22T18:29:16.749Z,24.30
2023-02-22T18:31:45.591Z,25.30
2023-02-22T18:34:13.964Z,27.00
2023-02-22T18:36:42.049Z,27.10
2023-02-22T18:39:13.006Z,27.47
2023-02-22T18:41:41.119Z,26.70
2023-02-22T18:44:11.038Z,26.93
2023-02-22T18:46:39.098Z,27.13
2023-02-22T18:49:07.767Z,27.53
2023-02-22T18:51:35.793Z,26.87
2023-02-22T18:54:03.812Z,26.80
2023-02-22T18:56:34.088Z,27.43
2023-02-22T18:59:03.669Z,27.17
2023-02-22T19:01:37.763Z,26.40
2023-02-22T19:04:06.199Z,26.27
2023-02-22T19:06:35.338Z,27.13
2023-02-22T19:09:08.247Z,27.60
2023-02-22T19:11:40.566Z,26.87
2023-02-22T19:14:11.296Z,26.53
2023-02-22T19:16:40.619Z,28.50
2023-02-22T19:19:10.414Z,25.93
2023-02-22T19:21:38.543Z,26.17
2023-02-22T19:24:09.939Z,27.97
2023-02-22T19:26:40.806Z,27.27
2023-02-22T19:29:15.536Z,27.37
2023-02-22T19:31:51.219Z,25.73
2023-02-22T19:34:39.874Z,26.53
2023-02-22T19:37:08.366Z,27.70
2023-02-22T19:39:38.398Z,25.47
2023-02-22T19:42:10.448Z,26.47
2023-02-22T19:44:48.231Z,26.80
2023-02-22T19:47:16.391Z,27.77
2023-02-22T19:50:05.193Z,26.43
2023-02-22T19:52:35.620Z,26.83
2023-02-22T19:55:06.159Z,27.97
2023-02-22T19:58:06.213Z,26.93
2023-02-22T20:00:40.792Z,26.17
2023-02-22T20:03:15.844Z,25.80
2023-02-22T20:05:45.251Z,26.97
2023-02-22T20:08:13.640Z,28.27
2023-02-22T20:10:42.045Z,27.93
2023-02-22T20:13:18.076Z,28.27
2023-02-22T20:15:49.889Z,28.83
2023-02-22T20:18:20.216Z,26.80
2023-02-22T20:20:49.581Z,28.30
2023-02-22T20:23:18.027Z,28.30
2023-02-22T20:25:54.372Z,28.43
2023-02-22T20:28:30.465Z,28.67
2023-02-22T20:30:59.545Z,27.63
2023-02-22T20:33:28.354Z,26.67
2023-02-22T20:35:57.351Z,26.97
2023-02-22T20:38:27.162Z,27.97
2023-02-22T20:40:55.607Z,27.13
2023-02-22T20:43:25.422Z,27.47
2023-02-22T20:45:53.923Z,26.23
2023-02-22T20:48:22.248Z,26.83
2023-02-22T20:50:50.537Z,26.27
2023-02-22T20:53:18.906Z,27.83
2023-02-22T20:55:52.131Z,26.50
2023-02-22T20:58:22.936Z,28.20
2023-02-22T21:00:54.599Z,27.40
2023-02-22T21:03:23.168Z,27.37
2023-02-22T21:05:51.633Z,28.67
2023-02-22T21:08:20.723Z,26.30
2023-02-22T21:10:51.637Z,27.07
2023-02-22T21:13:19.709Z,27.80
2023-02-22T21:15:47.980Z,27.17
2023-02-22T21:18:18.284Z,26.83
2023-02-22T21:20:47.021Z,27.37
2023-02-22T21:23:15.606Z,27.77
2023-02-22T21:25:53.068Z,26.87
2023-02-22T21:28:27.683Z,26.37
2023-02-22T21:31:06.813Z,26.53
2023-02-22T21:33:40.812Z,27.17
2023-02-22T21:36:13.573Z,26.40
2023-02-22T21:39:08.433Z,26.77
2023-02-22T21:41:39.753Z,27.00
2023-02-22T21:44:08.807Z,27.23
2023-02-22T21:46:40.376Z,29.83
2023-02-22T21:49:31.544Z,27.00
2023-02-22T21:52:00.798Z,28.93
2023-02-22T21:54:29.126Z,27.70
2023-02-22T21:57:00.089Z,29.27
2023-02-22T21:59:28.622Z,27.47
2023-02-22T22:01:57.420Z,28.80
2023-02-22T22:04:29.988Z,27.83
2023-02-22T22:07:20.740Z,28.60
2023-02-22T22:09:56.755Z,27.43
2023-02-22T22:12:37.470Z,27.80
2023-02-22T22:15:07.819Z,27.87
2023-02-22T22:17:37.520Z,27.70
2023-02-22T22:20:09.510Z,28.47
2023-02-22T22:22:41.297Z,28.17
2023-02-22T22:25:10.742Z,26.27
2023-02-22T22:27:38.816Z,26.77
2023-02-22T22:30:12.440Z,26.43
2023-02-22T22:32:40.597Z,26.13
2023-02-22T22:35:14.899Z,27.73
2023-02-22T22:37:47.336Z,28.87
2023-02-22T22:40:16.057Z,27.63
2023-02-22T22:42:47.974Z,26.47
2023-02-22T22:45:18.058Z,27.97
2023-02-22T22:47:48.719Z,27.27
2023-02-22T22:50:22.027Z,27.87
2023-02-22T22:52:52.027Z,27.80
2023-02-22T22:55:24.003Z,28.27
2023-02-22T22:57:52.637Z,27.70
2023-02-22T23:00:32.201Z,26.87
2023-02-22T23:03:22.052Z,28.00
2023-02-22T23:05:50.123Z,27.60
2023-02-22T23:08:20.899Z,28.60
2023-02-22T23:10:50.773Z,27.57
2023-02-22T23:13:21.121Z,28.17
2023-02-22T23:15:51.648Z,28.77
2023-02-22T23:18:22.489Z,26.90
2023-02-22T23:20:55.266Z,28.50
2023-02-22T23:23:27.873Z,27.27
2023-02-22T23:26:11.758Z,29.20
2023-02-22T23:28:41.222Z,25.37
2023-02-22T23:31:14.075Z,27.30
2023-02-22T23:33:46.929Z,27.33
2023-02-22T23:36:15.851Z,27.53
2023-02-22T23:38:48.327Z,27.60
2023-02-22T23:41:18.491Z,26.33
2023-02-22T23:43:47.228Z,28.83
2023-02-22T23:46:20.683Z,27.37
2023-02-22T23:48:52.464Z,27.43
2023-02-22T23:51:25.409Z,26.37
2023-02-22T23:53:57.463Z,27.13
2023-02-22T23:56:31.196Z,26.93
2023-02-22T23:58:59.339Z,26.60
